Time;durP1;ratioP1;P1;durP2;ratioP2;P2;SDS_P1;SDS_P2;PMS_P1;PMS_P2;Temp;Humidity;BMP_temperature;BMP_pressure;BME280_temperature;BME280_humidity;BME280_pressure;Samples;Min_cycle;Max_cycle;Signal;HPM_P1;HPM_P2
2023/05/31 00:00:07;;;;;;;0.60;0.60;;;;;;;;;;5019658;28;20045;-57
2023/05/31 00:02:33;;;;;;;0.85;0.82;;;;;;;;;;5024573;28;20057;-57
2023/05/31 00:04:59;;;;;;;0.70;0.70;;;;;;;;;;5025383;28;20063;-58
2023/05/31 00:07:25;;;;;;;0.70;0.70;;;;;;;;;;5025266;28;20481;-57
2023/05/31 00:09:51;;;;;;;0.60;0.60;;;;;;;;;;5024609;28;20052;-58
2023/05/31 00:12:17;;;;;;;0.70;0.68;;;;;;;;;;5025172;28;20147;-58
2023/05/31 00:14:43;;;;;;;0.50;0.50;;;;;;;;;;5025466;28;20121;-57
2023/05/31 00:17:09;;;;;;;0.65;0.50;;;;;;;;;;5024996;28;20084;-58
2023/05/31 00:19:35;;;;;;;1.38;0.60;;;;;;;;;;5024560;28;20053;-58
2023/05/31 00:22:01;;;;;;;0.50;0.43;;;;;;;;;;5017820;28;20568;-57
2023/05/31 00:24:27;;;;;;;1.02;0.70;;;;;;;;;;5024503;28;20502;-57
2023/05/31 00:26:53;;;;;;;0.95;0.70;;;;;;;;;;5023093;28;20045;-58
2023/05/31 00:29:19;;;;;;;0.35;0.35;;;;;;;;;;5025222;28;20429;-57
2023/05/31 00:31:45;;;;;;;0.80;0.65;;;;;;;;;;5024834;28;20052;-57
2023/05/31 00:34:12;;;;;;;0.70;0.70;;;;;;;;;;5020077;28;20084;-58
2023/05/31 00:36:38;;;;;;;0.60;0.60;;;;;;;;;;5024333;28;20049;-57
2023/05/31 00:39:04;;;;;;;0.60;0.60;;;;;;;;;;5024183;28;20079;-58
2023/05/31 00:41:30;;;;;;;0.75;0.70;;;;;;;;;;5019262;28;20045;-57
2023/05/31 00:43:56;;;;;;;0.80;0.70;;;;;;;;;;5024795;28;20486;-57
2023/05/31 00:46:26;;;;;;;0.73;0.60;;;;;;;;;;5024462;28;20045;-58
2023/05/31 00:48:52;;;;;;;0.60;0.43;;;;;;;;;;5024968;28;20042;-58
2023/05/31 00:51:19;;;;;;;0.60;0.55;;;;;;;;;;5025175;28;20038;-57
2023/05/31 00:53:45;;;;;;;0.82;0.77;;;;;;;;;;5024108;28;20072;-57
2023/05/31 00:56:12;;;;;;;0.82;0.80;;;;;;;;;;5025240;28;20545;-57
2023/05/31 00:58:38;;;;;;;0.50;0.50;;;;;;;;;;5023895;28;20772;-58
2023/05/31 01:01:04;;;;;;;1.08;0.68;;;;;;;;;;5026190;28;20049;-57
2023/05/31 01:03:30;;;;;;;0.68;0.68;;;;;;;;;;5025797;28;20066;-57
2023/05/31 01:05:56;;;;;;;1.77;0.90;;;;;;;;;;5023366;28;20061;-57
2023/05/31 01:08:22;;;;;;;0.75;0.70;;;;;;;;;;5024916;28;20564;-58
2023/05/31 01:10:49;;;;;;;0.45;0.45;;;;;;;;;;5019469;28;20501;-58
2023/05/31 01:13:18;;;;;;;1.20;0.50;;;;;;;;;;5018370;28;20045;-57
2023/05/31 01:15:47;;;;;;;0.47;0.40;;;;;;;;;;5024251;28;20151;-57
2023/05/31 01:18:26;;;;;;;0.30;0.30;;;;;;;;;;5025219;28;20056;-57
2023/05/31 01:20:57;;;;;;;0.55;0.50;;;;;;;;;;5025313;28;20034;-58
2023/05/31 01:23:26;;;;;;;1.98;0.60;;;;;;;;;;5028667;28;20095;-57
2023/05/31 01:25:55;;;;;;;0.40;0.40;;;;;;;;;;5010608;28;20220;-57
2023/05/31 01:28:21;;;;;;;0.75;0.50;;;;;;;;;;5028187;28;20076;-58
2023/05/31 01:30:49;;;;;;;0.50;0.50;;;;;;;;;;5027936;28;20049;-57
2023/05/31 01:33:16;;;;;;;0.43;0.40;;;;;;;;;;5025980;28;20045;-57
2023/05/31 01:35:42;;;;;;;0.82;0.70;;;;;;;;;;5026922;28;20538;-57
2023/05/31 01:38:08;;;;;;;0.50;0.50;;;;;;;;;;5027735;28;20050;-58
2023/05/31 01:40:35;;;;;;;1.02;0.73;;;;;;;;;;5027599;28;20048;-57
2023/05/31 01:43:02;;;;;;;1.75;0.57;;;;;;;;;;5027998;28;20163;-57
2023/05/31 01:45:28;;;;;;;0.70;0.70;;;;;;;;;;5028133;28;20087;-57
2023/05/31 01:47:56;;;;;;;0.55;0.55;;;;;;;;;;5019575;28;20486;-58
2023/05/31 01:50:24;;;;;;;0.50;0.50;;;;;;;;;;5027968;28;20041;-57
2023/05/31 01:52:50;;;;;;;0.68;0.68;;;;;;;;;;5027597;28;20099;-58
2023/05/31 01:55:16;;;;;;;0.85;0.73;;;;;;;;;;5028363;28;20637;-57
2023/05/31 01:57:43;;;;;;;0.40;0.40;;;;;;;;;;5028050;28;20056;-57
2023/05/31 02:00:14;;;;;;;0.43;0.32;;;;;;;;;;5027976;28;20049;-58
2023/05/31 02:02:44;;;;;;;0.65;0.52;;;;;;;;;;5023596;28;20525;-57
2023/05/31 02:05:12;;;;;;;0.85;0.70;;;;;;;;;;5027894;28;20128;-57
2023/05/31 02:07:39;;;;;;;0.45;0.45;;;;;;;;;;5027686;28;20124;-57
2023/05/31 02:10:05;;;;;;;0.60;0.60;;;;;;;;;;5026906;28;20044;-57
2023/05/31 02:12:31;;;;;;;0.35;0.35;;;;;;;;;;5027594;28;20100;-56
2023/05/31 02:14:57;;;;;;;0.65;0.65;;;;;;;;;;5027767;28;20439;-57
2023/05/31 02:17:24;;;;;;;0.60;0.60;;;;;;;;;;5027095;28;20414;-57
2023/05/31 02:19:54;;;;;;;1.17;0.75;;;;;;;;;;5026942;28;20516;-57
2023/05/31 02:22:20;;;;;;;0.57;0.55;;;;;;;;;;5024346;28;20053;-57
2023/05/31 02:24:46;;;;;;;0.63;0.63;;;;;;;;;;5025425;28;20374;-57
2023/05/31 02:27:13;;;;;;;0.75;0.75;;;;;;;;;;5028305;28;20052;-58
2023/05/31 02:29:39;;;;;;;1.33;1.13;;;;;;;;;;5027213;28;20120;-57
2023/05/31 02:32:06;;;;;;;1.23;1.10;;;;;;;;;;5026491;28;20037;-57
2023/05/31 02:34:32;;;;;;;1.20;1.10;;;;;;;;;;5027313;28;20038;-58
2023/05/31 02:36:58;;;;;;;1.20;1.05;;;;;;;;;;5026532;28;20087;-58
2023/05/31 02:39:25;;;;;;;1.40;0.90;;;;;;;;;;5027069;28;20038;-57
2023/05/31 02:41:51;;;;;;;0.75;0.75;;;;;;;;;;5026889;28;20041;-57
2023/05/31 02:44:17;;;;;;;0.98;0.60;;;;;;;;;;5018887;28;20045;-58
2023/05/31 02:46:43;;;;;;;0.90;0.80;;;;;;;;;;5026959;28;20037;-57
2023/05/31 02:49:09;;;;;;;1.00;0.85;;;;;;;;;;5026554;28;20053;-57
2023/05/31 02:51:35;;;;;;;0.88;0.88;;;;;;;;;;5025478;28;20092;-57
2023/05/31 02:54:01;;;;;;;0.93;0.70;;;;;;;;;;5025866;28;20041;-58
2023/05/31 02:56:27;;;;;;;0.55;0.55;;;;;;;;;;5020375;28;20469;-57
2023/05/31 02:58:53;;;;;;;1.33;1.00;;;;;;;;;;5020561;28;20073;-58
2023/05/31 03:01:19;;;;;;;1.08;1.00;;;;;;;;;;5026555;28;20052;-57
2023/05/31 03:03:45;;;;;;;1.45;1.17;;;;;;;;;;5026285;28;20091;-57
2023/05/31 03:06:14;;;;;;;0.82;0.82;;;;;;;;;;5025397;28;20041;-57
2023/05/31 03:08:40;;;;;;;2.10;0.82;;;;;;;;;;5021064;28;20907;-57
2023/05/31 03:11:06;;;;;;;1.30;1.10;;;;;;;;;;5025899;28;20048;-58
2023/05/31 03:13:32;;;;;;;1.10;1.00;;;;;;;;;;5024761;28;20052;-57
2023/05/31 03:15:58;;;;;;;0.70;0.70;;;;;;;;;;5025903;28;20115;-57
2023/05/31 03:18:24;;;;;;;0.80;0.80;;;;;;;;;;5026039;28;20132;-57
2023/05/31 03:20:50;;;;;;;0.93;0.82;;;;;;;;;;5024425;28;20044;-57
2023/05/31 03:23:16;;;;;;;1.35;1.25;;;;;;;;;;5019624;28;20477;-57
2023/05/31 03:25:42;;;;;;;2.45;1.55;;;;;;;;;;5025704;28;20034;-57
2023/05/31 03:28:08;;;;;;;1.23;1.13;;;;;;;;;;5024827;28;20081;-57
2023/05/31 03:30:34;;;;;;;1.42;1.20;;;;;;;;;;5025211;28;20115;-57
2023/05/31 03:33:00;;;;;;;1.35;1.25;;;;;;;;;;5025220;28;20142;-58
2023/05/31 03:35:26;;;;;;;1.27;0.93;;;;;;;;;;5020901;28;20513;-57
2023/05/31 03:37:53;;;;;;;1.08;1.08;;;;;;;;;;5024632;28;20076;-57
2023/05/31 03:40:20;;;;;;;1.88;1.02;;;;;;;;;;5025272;28;20049;-57
2023/05/31 03:42:46;;;;;;;1.27;1.17;;;;;;;;;;5024393;28;20048;-58
2023/05/31 03:45:12;;;;;;;1.23;1.13;;;;;;;;;;5008148;28;20033;-57
2023/05/31 03:47:38;;;;;;;2.35;1.40;;;;;;;;;;5024193;28;20506;-57
2023/05/31 03:50:05;;;;;;;0.90;0.90;;;;;;;;;;5025218;28;20033;-57
2023/05/31 03:52:31;;;;;;;1.27;0.88;;;;;;;;;;5024788;28;20561;-58
2023/05/31 03:54:57;;;;;;;0.70;0.70;;;;;;;;;;5024450;28;20041;-57
2023/05/31 03:57:23;;;;;;;1.20;1.00;;;;;;;;;;5025326;28;20052;-57
2023/05/31 03:59:50;;;;;;;1.48;0.98;;;;;;;;;;5024050;28;20064;-57
2023/05/31 04:02:16;;;;;;;0.75;0.70;;;;;;;;;;5024604;28;20168;-57
2023/05/31 04:04:42;;;;;;;0.80;0.80;;;;;;;;;;5024929;28;20057;-58
2023/05/31 04:07:08;;;;;;;0.70;0.63;;;;;;;;;;5024800;28;20049;-58
2023/05/31 04:09:34;;;;;;;1.65;0.93;;;;;;;;;;5022629;28;20648;-57
2023/05/31 04:12:02;;;;;;;1.05;0.95;;;;;;;;;;5022365;28;20609;-57
2023/05/31 04:14:28;;;;;;;0.80;0.80;;;;;;;;;;5024857;28;20051;-57
2023/05/31 04:16:54;;;;;;;1.80;0.70;;;;;;;;;;5023760;28;20140;-58
2023/05/31 04:19:20;;;;;;;0.70;0.63;;;;;;;;;;5025084;28;20052;-57
2023/05/31 04:21:46;;;;;;;0.55;0.47;;;;;;;;;;5023998;28;20124;-57
2023/05/31 04:24:12;;;;;;;0.50;0.50;;;;;;;;;;5025270;28;20553;-57
2023/05/31 04:26:38;;;;;;;0.82;0.77;;;;;;;;;;5025022;28;20057;-57
2023/05/31 04:29:04;;;;;;;0.70;0.70;;;;;;;;;;5024562;28;20037;-57
2023/05/31 04:31:31;;;;;;;1.02;0.70;;;;;;;;;;5018397;28;20052;-57
2023/05/31 04:33:59;;;;;;;0.55;0.55;;;;;;;;;;5023536;28;20045;-57
2023/05/31 04:36:26;;;;;;;0.80;0.70;;;;;;;;;;5023856;28;20446;-57
2023/05/31 04:38:54;;;;;;;0.80;0.73;;;;;;;;;;5023024;28;20033;-57
2023/05/31 04:41:24;;;;;;;0.70;0.70;;;;;;;;;;5021765;28;20045;-57
2023/05/31 04:43:52;;;;;;;0.63;0.63;;;;;;;;;;5022865;28;20038;-58
2023/05/31 04:46:19;;;;;;;0.50;0.40;;;;;;;;;;5020590;28;20050;-57
2023/05/31 04:48:51;;;;;;;1.02;0.70;;;;;;;;;;5023734;28;20103;-57
2023/05/31 04:51:17;;;;;;;;;;;;;;;;;;5022621;28;20045;-57
2023/05/31 04:53:44;;;;;;;0.88;0.60;;;;;;;;;;5023892;28;19917;-58
2023/05/31 04:56:12;;;;;;;0.80;0.50;;;;;;;;;;5001461;28;20064;-57
2023/05/31 04:58:38;;;;;;;0.57;0.57;;;;;;;;;;5023120;28;20041;-56
2023/05/31 05:01:04;;;;;;;0.60;0.60;;;;;;;;;;5021300;28;20041;-57
2023/05/31 05:03:31;;;;;;;0.63;0.55;;;;;;;;;;5023795;28;20057;-57
2023/05/31 05:05:57;;;;;;;0.63;0.50;;;;;;;;;;5023004;28;20482;-57
2023/05/31 05:08:23;;;;;;;1.35;0.90;;;;;;;;;;5024244;28;20041;-57
2023/05/31 05:10:49;;;;;;;0.90;0.60;;;;;;;;;;5023291;28;20529;-57
2023/05/31 05:13:16;;;;;;;0.60;0.60;;;;;;;;;;5024079;28;20041;-57
2023/05/31 05:15:42;;;;;;;0.50;0.47;;;;;;;;;;5021720;28;20564;-57
2023/05/31 05:18:08;;;;;;;0.55;0.55;;;;;;;;;;5023261;28;20053;-57
2023/05/31 05:20:35;;;;;;;2.60;0.90;;;;;;;;;;5022785;28;20049;-57
2023/05/31 05:23:06;;;;;;;1.23;0.68;;;;;;;;;;5020114;28;20073;-58
2023/05/31 05:25:33;;;;;;;0.40;0.40;;;;;;;;;;5017366;28;20610;-57
2023/05/31 05:27:59;;;;;;;0.47;0.45;;;;;;;;;;5022332;28;20029;-57
2023/05/31 05:30:25;;;;;;;1.05;0.40;;;;;;;;;;5017382;28;20044;-58
2023/05/31 05:32:51;;;;;;;0.55;0.55;;;;;;;;;;5017151;28;20624;-57
2023/05/31 05:35:17;;;;;;;0.63;0.60;;;;;;;;;;5023593;28;20041;-57
2023/05/31 05:37:43;;;;;;;0.43;0.43;;;;;;;;;;5022320;28;20046;-57
2023/05/31 05:40:10;;;;;;;0.50;0.50;;;;;;;;;;5021942;28;20079;-58
2023/05/31 05:42:36;;;;;;;1.10;0.70;;;;;;;;;;5023688;28;20103;-57
2023/05/31 05:45:03;;;;;;;1.40;1.10;;;;;;;;;;5021854;28;20040;-57
2023/05/31 05:47:29;;;;;;;2.97;1.27;;;;;;;;;;5023216;28;20099;-58
2023/05/31 05:49:55;;;;;;;1.98;1.08;;;;;;;;;;5023197;28;20037;-57
2023/05/31 05:52:21;;;;;;;0.73;0.70;;;;;;;;;;5023747;28;20490;-57
2023/05/31 05:54:47;;;;;;;2.80;1.48;;;;;;;;;;5022082;28;20048;-57
2023/05/31 05:57:14;;;;;;;1.65;1.10;;;;;;;;;;5023854;28;20116;-58
2023/05/31 05:59:41;;;;;;;1.10;1.00;;;;;;;;;;5019843;28;20485;-57
2023/05/31 06:02:07;;;;;;;4.15;1.50;;;;;;;;;;5021763;28;20120;-57
2023/05/31 06:04:33;;;;;;;2.55;1.25;;;;;;;;;;5022999;28;20421;-58
2023/05/31 06:06:59;;;;;;;7.72;1.60;;;;;;;;;;5024468;28;20037;-58
2023/05/31 06:09:25;;;;;;;2.83;1.35;;;;;;;;;;5024077;28;20092;-58
2023/05/31 06:11:51;;;;;;;2.72;1.70;;;;;;;;;;5019304;28;20606;-58
2023/05/31 06:14:17;;;;;;;1.00;0.90;;;;;;;;;;5025951;28;20045;-58
2023/05/31 06:16:43;;;;;;;1.50;0.90;;;;;;;;;;5026316;28;20095;-57
2023/05/31 06:19:10;;;;;;;1.75;1.30;;;;;;;;;;5026556;28;20107;-58
2023/05/31 06:21:36;;;;;;;1.75;0.90;;;;;;;;;;5026404;28;20512;-57
2023/05/31 06:24:02;;;;;;;1.40;1.15;;;;;;;;;;5024523;28;20095;-58
2023/05/31 06:26:28;;;;;;;1.48;1.05;;;;;;;;;;5026969;28;20136;-58
2023/05/31 06:28:57;;;;;;;0.98;0.75;;;;;;;;;;5025849;28;20567;-57
2023/05/31 06:31:23;;;;;;;1.00;0.90;;;;;;;;;;5021314;28;20045;-57
2023/05/31 06:33:49;;;;;;;1.40;0.85;;;;;;;;;;5023502;28;20052;-57
2023/05/31 06:36:15;;;;;;;1.40;0.65;;;;;;;;;;5026848;28;20124;-58
2023/05/31 06:38:41;;;;;;;0.95;0.45;;;;;;;;;;5023421;28;20691;-57
2023/05/31 06:41:07;;;;;;;0.73;0.65;;;;;;;;;;5022159;28;20140;-57
2023/05/31 06:43:33;;;;;;;1.30;0.70;;;;;;;;;;5023130;28;20045;-57
2023/05/31 06:45:59;;;;;;;1.50;0.77;;;;;;;;;;5016582;28;20042;-57
2023/05/31 06:48:25;;;;;;;0.90;0.70;;;;;;;;;;5026356;28;20527;-58
2023/05/31 06:50:51;;;;;;;1.60;0.60;;;;;;;;;;5022045;28;20041;-58
2023/05/31 06:53:17;;;;;;;1.05;0.63;;;;;;;;;;5026766;28;20132;-57
2023/05/31 06:55:43;;;;;;;1.40;0.47;;;;;;;;;;5026569;28;20076;-58
2023/05/31 06:58:10;;;;;;;0.50;0.50;;;;;;;;;;5025444;28;20045;-58
2023/05/31 07:00:36;;;;;;;0.32;0.32;;;;;;;;;;5020364;28;20043;-58
2023/05/31 07:03:02;;;;;;;0.43;0.40;;;;;;;;;;5008993;28;20539;-57
2023/05/31 07:05:30;;;;;;;2.00;0.70;;;;;;;;;;5019451;28;20057;-58
2023/05/31 07:07:56;;;;;;;1.13;0.70;;;;;;;;;;5026169;28;20703;-58
2023/05/31 07:10:22;;;;;;;0.32;0.32;;;;;;;;;;5022459;28;20037;-58
2023/05/31 07:12:50;;;;;;;1.08;0.63;;;;;;;;;;5020679;28;20046;-58
2023/05/31 07:15:16;;;;;;;0.55;0.38;;;;;;;;;;5023697;28;20421;-58
2023/05/31 07:17:42;;;;;;;1.50;0.32;;;;;;;;;;5016429;28;20041;-57
2023/05/31 07:20:08;;;;;;;0.68;0.47;;;;;;;;;;5017920;28;20052;-62
2023/05/31 07:22:34;;;;;;;0.85;0.60;;;;;;;;;;5024374;28;20037;-60
2023/05/31 07:25:00;;;;;;;1.65;0.60;;;;;;;;;;5023073;28;20270;-57
2023/05/31 07:27:26;;;;;;;1.13;0.57;;;;;;;;;;5019649;28;20108;-58
2023/05/31 07:29:52;;;;;;;1.42;0.50;;;;;;;;;;5016197;28;20137;-58
2023/05/31 07:32:18;;;;;;;1.20;0.30;;;;;;;;;;5017787;28;20049;-58
2023/05/31 07:34:44;;;;;;;0.32;0.32;;;;;;;;;;5021451;28;20406;-57
2023/05/31 07:37:10;;;;;;;1.30;0.30;;;;;;;;;;5022355;28;20073;-58
2023/05/31 07:39:36;;;;;;;0.40;0.40;;;;;;;;;;5025485;28;20722;-58
2023/05/31 07:42:02;;;;;;;0.82;0.50;;;;;;;;;;5026005;28;20540;-57
2023/05/31 07:44:28;;;;;;;0.57;0.52;;;;;;;;;;5026530;28;20123;-58
2023/05/31 07:46:54;;;;;;;0.60;0.50;;;;;;;;;;5003001;28;20084;-58
2023/05/31 07:49:20;;;;;;;0.85;0.40;;;;;;;;;;5003343;28;20065;-58
2023/05/31 07:51:46;;;;;;;0.50;0.30;;;;;;;;;;5024895;28;20095;-58
2023/05/31 07:54:12;;;;;;;0.32;0.32;;;;;;;;;;5025978;28;20509;-58
2023/05/31 07:56:40;;;;;;;0.57;0.45;;;;;;;;;;5026516;28;20073;-58
2023/05/31 07:59:06;;;;;;;0.55;0.38;;;;;;;;;;5026144;28;20497;-58
2023/05/31 08:01:33;;;;;;;0.40;0.40;;;;;;;;;;5025951;28;20136;-58
2023/05/31 08:04:06;;;;;;;2.55;1.00;;;;;;;;;;5025252;28;20128;-58
2023/05/31 08:06:32;;;;;;;1.13;0.57;;;;;;;;;;5025574;28;20612;-58
2023/05/31 08:08:59;;;;;;;1.83;0.60;;;;;;;;;;5006733;28;20051;-59
2023/05/31 08:11:25;;;;;;;1.60;0.60;;;;;;;;;;5013853;28;20049;-58
2023/05/31 08:13:51;;;;;;;0.82;0.60;;;;;;;;;;5016540;28;20045;-58
2023/05/31 08:16:18;;;;;;;0.40;0.40;;;;;;;;;;5004360;28;20044;-59
2023/05/31 08:18:44;;;;;;;0.63;0.52;;;;;;;;;;5004365;28;20045;-59
2023/05/31 08:21:11;;;;;;;1.08;0.50;;;;;;;;;;5004396;28;20046;-59
2023/05/31 08:23:37;;;;;;;2.28;0.60;;;;;;;;;;5001384;28;20564;-59
2023/05/31 08:26:03;;;;;;;1.02;0.57;;;;;;;;;;4999777;28;20120;-59
2023/05/31 08:28:32;;;;;;;1.38;0.70;;;;;;;;;;4998286;28;20041;-59
2023/05/31 08:30:58;;;;;;;1.00;0.77;;;;;;;;;;5002011;28;20510;-59
2023/05/31 08:33:29;;;;;;;3.28;1.10;;;;;;;;;;5001103;28;20034;-58
2023/05/31 08:35:59;;;;;;;1.77;1.00;;;;;;;;;;5003332;28;20046;-59
2023/05/31 08:38:25;;;;;;;2.33;1.00;;;;;;;;;;5007639;28;20046;-59
2023/05/31 08:40:51;;;;;;;4.30;1.40;;;;;;;;;;5025209;28;20048;-59
2023/05/31 08:43:21;;;;;;;2.97;1.02;;;;;;;;;;5024746;28;20401;-58
2023/05/31 08:45:50;;;;;;;2.30;1.33;;;;;;;;;;5024978;28;20485;-59
2023/05/31 08:48:19;;;;;;;1.45;0.85;;;;;;;;;;5025742;28;20079;-60
2023/05/31 08:50:45;;;;;;;2.17;1.13;;;;;;;;;;5023132;28;20115;-59
2023/05/31 08:53:11;;;;;;;6.57;1.85;;;;;;;;;;5025632;28;20056;-59
2023/05/31 08:55:38;;;;;;;2.53;1.30;;;;;;;;;;5024864;28;20041;-59
2023/05/31 08:58:05;;;;;;;1.30;0.98;;;;;;;;;;5023818;28;20037;-59
2023/05/31 09:00:32;;;;;;;2.35;1.45;;;;;;;;;;5025129;28;20083;-59
2023/05/31 09:03:00;;;;;;;5.68;1.50;;;;;;;;;;5023122;28;20406;-59
2023/05/31 09:05:26;;;;;;;2.38;1.38;;;;;;;;;;5023830;28;20041;-59
2023/05/31 09:07:52;;;;;;;2.70;1.63;;;;;;;;;;5019852;28;20059;-59
2023/05/31 09:10:19;;;;;;;1.70;1.13;;;;;;;;;;5005742;28;20041;-59
2023/05/31 09:12:45;;;;;;;2.00;1.27;;;;;;;;;;5001701;28;20461;-59
2023/05/31 09:15:15;;;;;;;3.63;1.77;;;;;;;;;;5002412;28;20046;-59
2023/05/31 09:17:44;;;;;;;2.20;1.60;;;;;;;;;;5005113;28;20044;-59
2023/05/31 09:20:10;;;;;;;6.60;2.50;;;;;;;;;;5003158;28;20252;-59
2023/05/31 09:22:36;;;;;;;3.88;2.35;;;;;;;;;;5005569;28;20509;-59
2023/05/31 09:25:02;;;;;;;4.70;2.35;;;;;;;;;;5004958;28;20034;-59
2023/05/31 09:27:35;;;;;;;6.15;2.33;;;;;;;;;;4999994;28;20038;-59
2023/05/31 09:30:05;;;;;;;5.65;2.38;;;;;;;;;;5000062;28;20044;-59
2023/05/31 09:32:31;;;;;;;4.72;2.55;;;;;;;;;;5000957;28;20052;-59
2023/05/31 09:35:10;;;;;;;3.78;1.85;;;;;;;;;;5005332;28;20046;-59
2023/05/31 09:37:42;;;;;;;1.83;1.52;;;;;;;;;;4998960;28;20072;-59
2023/05/31 09:40:08;;;;;;;1.85;1.65;;;;;;;;;;4998293;28;20073;-59
2023/05/31 09:42:34;;;;;;;2.17;1.52;;;;;;;;;;5002300;28;20494;-59
2023/05/31 09:45:00;;;;;;;1.85;1.38;;;;;;;;;;5005111;28;20113;-59
2023/05/31 09:47:26;;;;;;;2.50;1.90;;;;;;;;;;4998336;28;20075;-59
2023/05/31 09:49:55;;;;;;;3.50;2.63;;;;;;;;;;4992421;28;20045;-59
2023/05/31 09:52:30;;;;;;;6.43;2.13;;;;;;;;;;5000026;28;20042;-58
2023/05/31 09:54:59;;;;;;;3.53;2.33;;;;;;;;;;5003376;28;20501;-58
2023/05/31 09:57:41;;;;;;;1.70;1.50;;;;;;;;;;5002420;28;20045;-59
2023/05/31 10:00:15;;;;;;;1.77;1.35;;;;;;;;;;4997492;28;20604;-59
2023/05/31 10:02:42;;;;;;;2.47;1.63;;;;;;;;;;4999920;28;20165;-59
2023/05/31 10:05:09;;;;;;;1.75;1.58;;;;;;;;;;5004474;28;20046;-58
2023/05/31 10:09:38;;;;;;;2.53;1.52;;;;;;;;;;5098284;27;20427;-57
2023/05/31 10:12:04;;;;;;;3.00;2.22;;;;;;;;;;5077529;28;20115;-67
2023/05/31 10:14:33;;;;;;;2.60;2.08;;;;;;;;;;5078303;28;20194;-58
2023/05/31 10:17:00;;;;;;;3.08;1.50;;;;;;;;;;5077785;28;20060;-60
2023/05/31 10:19:41;;;;;;;2.17;1.35;;;;;;;;;;5077982;28;20047;-57
2023/05/31 10:22:08;;;;;;;2.55;1.60;;;;;;;;;;5064732;28;20216;-56
2023/05/31 10:24:41;;;;;;;3.47;2.00;;;;;;;;;;5077377;28;20166;-57
2023/05/31 10:27:19;;;;;;;2.75;1.67;;;;;;;;;;5074344;28;20131;-58
2023/05/31 10:29:50;;;;;;;3.42;2.20;;;;;;;;;;5075234;28;20053;-57
2023/05/31 10:32:19;;;;;;;2.17;1.20;;;;;;;;;;5061493;28;20094;-58
2023/05/31 10:34:45;;;;;;;1.73;1.40;;;;;;;;;;5069315;28;20044;-57
2023/05/31 10:37:11;;;;;;;5.22;2.08;;;;;;;;;;5079487;28;20056;-58
2023/05/31 10:39:40;;;;;;;5.22;2.75;;;;;;;;;;5080250;28;20097;-58
2023/05/31 10:42:12;;;;;;;3.17;2.15;;;;;;;;;;5080241;28;20048;-58
2023/05/31 10:44:46;;;;;;;2.92;2.03;;;;;;;;;;5080298;28;20036;-58
2023/05/31 10:47:14;;;;;;;2.85;1.92;;;;;;;;;;5060536;28;20377;-58
2023/05/31 10:49:41;;;;;;;6.53;2.33;;;;;;;;;;5080061;28;20135;-58
2023/05/31 10:52:09;;;;;;;6.22;2.25;;;;;;;;;;5077559;28;20560;-58
2023/05/31 10:54:35;;;;;;;2.90;1.70;;;;;;;;;;5079926;28;20534;-58
2023/05/31 10:57:03;;;;;;;4.65;2.15;;;;;;;;;;5078982;28;20040;-58
2023/05/31 10:59:30;;;;;;;3.33;2.03;;;;;;;;;;5079537;28;20259;-58
2023/05/31 11:01:57;;;;;;;3.40;1.83;;;;;;;;;;5079260;28;20492;-58
2023/05/31 11:04:24;;;;;;;5.75;1.70;;;;;;;;;;5079164;28;20048;-59
2023/05/31 11:07:14;;;;;;;3.72;1.80;;;;;;;;;;5079421;28;20103;-58
2023/05/31 11:09:40;;;;;;;2.42;1.45;;;;;;;;;;5058025;28;20032;-58
2023/05/31 11:12:06;;;;;;;3.70;1.77;;;;;;;;;;5080101;28;20040;-58
2023/05/31 11:14:33;;;;;;;3.67;1.95;;;;;;;;;;5078958;28;20523;-58
2023/05/31 11:17:02;;;;;;;1.85;1.50;;;;;;;;;;5080697;28;20051;-58
2023/05/31 11:19:28;;;;;;;4.00;1.85;;;;;;;;;;5071358;28;20575;-58
2023/05/31 11:21:55;;;;;;;6.03;1.85;;;;;;;;;;5067391;28;20041;-58
2023/05/31 11:24:34;;;;;;;5.43;1.92;;;;;;;;;;5064768;28;20066;-58
2023/05/31 11:27:00;;;;;;;3.50;2.25;;;;;;;;;;5067229;28;20056;-58
2023/05/31 11:29:46;;;;;;;2.78;1.75;;;;;;;;;;5067259;28;20036;-58
2023/05/31 11:32:12;;;;;;;3.90;1.45;;;;;;;;;;5063858;28;20044;-58
2023/05/31 11:34:53;;;;;;;2.60;1.67;;;;;;;;;;5061998;28;20128;-59
2023/05/31 11:37:21;;;;;;;3.35;1.83;;;;;;;;;;5057473;28;20527;-58
2023/05/31 11:39:47;;;;;;;2.22;1.40;;;;;;;;;;5053308;28;20393;-58
2023/05/31 11:42:14;;;;;;;3.92;2.25;;;;;;;;;;5060604;28;20094;-59
2023/05/31 11:44:44;;;;;;;2.25;2.05;;;;;;;;;;5061723;28;20041;-58
2023/05/31 11:47:10;;;;;;;3.78;1.85;;;;;;;;;;5060652;28;20503;-59
2023/05/31 11:49:37;;;;;;;4.80;2.60;;;;;;;;;;5058524;28;20052;-58
2023/05/31 11:52:03;;;;;;;3.38;2.20;;;;;;;;;;5059599;28;20043;-58
2023/05/31 11:54:33;;;;;;;3.17;2.40;;;;;;;;;;5059727;28;20132;-59
2023/05/31 11:57:09;;;;;;;4.40;2.55;;;;;;;;;;5055902;28;20041;-58
2023/05/31 11:59:35;;;;;;;3.05;1.60;;;;;;;;;;5058282;28;21300;-58
2023/05/31 12:02:02;;;;;;;4.95;2.45;;;;;;;;;;5060098;28;20090;-58
2023/05/31 12:04:29;;;;;;;1.65;1.40;;;;;;;;;;5060344;28;20036;-59
2023/05/31 12:06:55;;;;;;;3.38;2.20;;;;;;;;;;5055672;28;20851;-59
2023/05/31 12:09:27;;;;;;;5.70;2.50;;;;;;;;;;5053650;28;20131;-59
2023/05/31 12:11:55;;;;;;;1.80;1.70;;;;;;;;;;5053479;28;20833;-58
2023/05/31 12:14:21;;;;;;;2.45;1.73;;;;;;;;;;5055492;28;20044;-58
2023/05/31 12:16:50;;;;;;;1.73;1.40;;;;;;;;;;5059655;28;20131;-58
2023/05/31 12:19:17;;;;;;;1.30;1.20;;;;;;;;;;5053003;28;20477;-58
2023/05/31 12:21:43;;;;;;;3.55;2.10;;;;;;;;;;5058587;28;20120;-59
2023/05/31 12:24:12;;;;;;;2.03;1.60;;;;;;;;;;5060721;28;20036;-58
2023/05/31 12:26:38;;;;;;;3.47;1.73;;;;;;;;;;5061545;28;20492;-58
2023/05/31 12:29:05;;;;;;;2.05;1.45;;;;;;;;;;5058878;28;20071;-58
2023/05/31 12:31:33;;;;;;;2.75;1.45;;;;;;;;;;5060831;28;20051;-58
2023/05/31 12:34:06;;;;;;;1.90;1.50;;;;;;;;;;5065327;28;20066;-59
2023/05/31 12:36:39;;;;;;;3.17;1.52;;;;;;;;;;5060930;28;20052;-58
2023/05/31 12:39:09;;;;;;;5.72;2.72;;;;;;;;;;5061364;28;20045;-58
2023/05/31 12:41:35;;;;;;;4.18;2.63;;;;;;;;;;5051750;28;20074;-59
2023/05/31 12:44:01;;;;;;;4.65;2.60;;;;;;;;;;5058636;28;20051;-59
2023/05/31 12:46:27;;;;;;;6.10;2.63;;;;;;;;;;5067029;28;20044;-59
2023/05/31 12:48:53;;;;;;;1.75;1.65;;;;;;;;;;5065888;28;20048;-59
2023/05/31 12:51:23;;;;;;;3.38;2.10;;;;;;;;;;5066976;28;20101;-59
2023/05/31 12:53:49;;;;;;;3.67;1.58;;;;;;;;;;5048537;28;20116;-59
2023/05/31 12:56:15;;;;;;;1.60;1.08;;;;;;;;;;5046860;28;20778;-59
2023/05/31 12:58:42;;;;;;;1.85;1.30;;;;;;;;;;5047402;28;20090;-59
2023/05/31 13:01:08;;;;;;;3.92;1.73;;;;;;;;;;5048505;28;20491;-60
2023/05/31 13:03:34;;;;;;;4.68;2.30;;;;;;;;;;5063164;28;20051;-59
2023/05/31 13:06:00;;;;;;;3.08;2.10;;;;;;;;;;5054043;28;20378;-59
2023/05/31 13:08:26;;;;;;;3.88;2.10;;;;;;;;;;5058431;28;20127;-59
2023/05/31 13:10:53;;;;;;;4.25;2.58;;;;;;;;;;5057790;28;20570;-59
2023/05/31 13:13:19;;;;;;;3.20;2.17;;;;;;;;;;5056780;28;20059;-59
2023/05/31 13:15:46;;;;;;;5.45;2.30;;;;;;;;;;5061164;28;20116;-59
2023/05/31 13:18:12;;;;;;;7.03;2.60;;;;;;;;;;5057843;28;20483;-59
2023/05/31 13:20:38;;;;;;;11.38;2.08;;;;;;;;;;5066343;28;20120;-58
2023/05/31 13:23:08;;;;;;;3.80;1.83;;;;;;;;;;5047090;28;20124;-58
2023/05/31 13:25:34;;;;;;;4.43;2.25;;;;;;;;;;5047332;28;20439;-58
2023/05/31 13:28:00;;;;;;;2.72;1.60;;;;;;;;;;5066408;28;20055;-60
2023/05/31 13:30:27;;;;;;;3.42;1.70;;;;;;;;;;5066214;28;20032;-65
2023/05/31 13:32:53;;;;;;;3.13;1.92;;;;;;;;;;5047803;28;20052;-61
2023/05/31 13:35:19;;;;;;;4.28;1.70;;;;;;;;;;5045670;28;20080;-64
2023/05/31 13:37:45;;;;;;;3.25;2.08;;;;;;;;;;5046681;28;20127;-57
2023/05/31 13:40:11;;;;;;;2.25;1.65;;;;;;;;;;5057133;28;20127;-58
2023/05/31 13:42:37;;;;;;;1.52;1.38;;;;;;;;;;5055238;28;20786;-57
2023/05/31 13:45:03;;;;;;;4.22;2.10;;;;;;;;;;5051161;28;20071;-58
2023/05/31 13:47:29;;;;;;;6.05;1.70;;;;;;;;;;5061005;28;20089;-57
2023/05/31 13:49:55;;;;;;;3.63;2.40;;;;;;;;;;5063137;28;20392;-57
2023/05/31 13:52:22;;;;;;;4.28;2.00;;;;;;;;;;5064076;28;20029;-57
2023/05/31 13:54:48;;;;;;;2.75;1.77;;;;;;;;;;5062247;28;20044;-57
2023/05/31 13:57:14;;;;;;;2.78;2.15;;;;;;;;;;5060095;28;20040;-57
2023/05/31 13:59:41;;;;;;;1.70;1.60;;;;;;;;;;5055614;28;20041;-57
2023/05/31 14:02:07;;;;;;;4.97;1.65;;;;;;;;;;5053328;28;20550;-57
2023/05/31 14:04:33;;;;;;;4.38;1.88;;;;;;;;;;5043259;28;20052;-57
2023/05/31 14:06:59;;;;;;;2.05;1.75;;;;;;;;;;5042384;28;20389;-57
2023/05/31 14:09:26;;;;;;;2.50;1.58;;;;;;;;;;5044065;28;20378;-57
2023/05/31 14:11:52;;;;;;;3.10;1.80;;;;;;;;;;5044604;28;20129;-57
2023/05/31 14:14:18;;;;;;;3.30;1.80;;;;;;;;;;5044189;28;20080;-57
2023/05/31 14:16:44;;;;;;;2.10;1.42;;;;;;;;;;5045759;28;20068;-57
2023/05/31 14:19:10;;;;;;;2.95;1.63;;;;;;;;;;5045213;28;20048;-57
2023/05/31 14:21:36;;;;;;;4.65;1.88;;;;;;;;;;5043037;28;20333;-57
2023/05/31 14:24:03;;;;;;;2.85;1.50;;;;;;;;;;5025059;28;20049;-57
2023/05/31 14:26:29;;;;;;;3.08;1.30;;;;;;;;;;5043240;28;20103;-57
2023/05/31 14:28:56;;;;;;;3.13;1.58;;;;;;;;;;5042054;28;20040;-57
2023/05/31 14:31:22;;;;;;;2.65;1.48;;;;;;;;;;5043465;28;20037;-57
2023/05/31 14:33:48;;;;;;;1.55;1.20;;;;;;;;;;5042951;28;20044;-57
2023/05/31 14:36:14;;;;;;;3.40;1.52;;;;;;;;;;5043982;28;20037;-57
2023/05/31 14:38:40;;;;;;;3.13;1.13;;;;;;;;;;5044913;28;20619;-57
2023/05/31 14:41:06;;;;;;;2.35;1.38;;;;;;;;;;5045033;28;20048;-57
2023/05/31 14:43:32;;;;;;;1.33;1.08;;;;;;;;;;5044007;28;20131;-57